Time;durP1;ratioP1;P1;durP2;ratioP2;P2;SDS_P1;SDS_P2;PMS_P1;PMS_P2;Temp;Humidity;BMP_temperature;BMP_pressure;BME280_temperature;BME280_humidity;BME280_pressure;Samples;Min_cycle;Max_cycle;Signal;HPM_P1;HPM_P2
2024/02/02 00:02:21;;;;;;;;;;;;;;;20.91;24.54;98854.63;5102892;28;20295;-78
2024/02/02 00:04:47;;;;;;;;;;;;;;;21.43;24.16;98850.41;5114306;28;19922;-78
2024/02/02 00:07:13;;;;;;;;;;;;;;;20.44;24.63;98846.50;5113599;28;19916;-78
2024/02/02 00:09:39;;;;;;;;;;;;;;;19.35;26.46;98854.78;5112296;28;19916;-78
2024/02/02 00:12:06;;;;;;;;;;;;;;;20.13;25.77;98844.28;5098636;28;19929;-78
2024/02/02 00:14:32;;;;;;;;;;;;;;;20.91;24.39;98845.50;5104808;28;19920;-78
2024/02/02 00:16:58;;;;;;;;;;;;;;;18.45;31.58;98861.69;5105357;28;19920;-78
2024/02/02 00:19:24;;;;;;;;;;;;;;;19.47;26.31;98850.94;5102068;28;19924;-78
2024/02/02 00:21:50;;;;;;;;;;;;;;;20.09;25.78;98857.41;5102024;28;19916;-77
2024/02/02 00:24:16;;;;;;;;;;;;;;;19.59;26.62;98859.81;5100850;28;20077;-77
2024/02/02 00:26:42;;;;;;;;;;;;;;;19.74;27.79;98849.59;5108265;28;20395;-78
2024/02/02 00:29:09;;;;;;;;;;;;;;;17.63;29.01;98856.09;5096847;28;20014;-77
2024/02/02 00:31:34;;;;;;;;;;;;;;;19.73;25.92;98862.72;5092950;28;19963;-78
2024/02/02 00:34:01;;;;;;;;;;;;;;;18.31;28.46;98862.31;5100120;27;19924;-78
2024/02/02 00:36:27;;;;;;;;;;;;;;;19.46;28.77;98861.31;5101667;27;19970;-78
2024/02/02 00:38:53;;;;;;;;;;;;;;;19.99;25.81;98868.09;5113367;27;19979;-78
2024/02/02 00:41:19;;;;;;;;;;;;;;;19.85;25.83;98859.63;5102853;27;19928;-78
2024/02/02 00:43:45;;;;;;;;;;;;;;;20.32;25.13;98857.97;5104929;28;19932;-78
2024/02/02 00:46:11;;;;;;;;;;;;;;;20.24;25.24;98847.97;5101086;27;20446;-78
2024/02/02 00:48:38;;;;;;;;;;;;;;;19.10;27.07;98865.69;5111667;28;19927;-78
2024/02/02 00:51:04;;;;;;;;;;;;;;;18.91;27.28;98856.72;5100847;28;19951;-78
2024/02/02 00:53:30;;;;;;;;;;;;;;;19.32;26.65;98859.13;5106652;28;20380;-78
2024/02/02 00:55:56;;;;;;;;;;;;;;;19.99;25.51;98856.16;5104975;27;19920;-78
2024/02/02 00:58:22;;;;;;;;;;;;;;;19.23;26.98;98867.00;5105627;28;19924;-78
2024/02/02 01:00:48;;;;;;;;;;;;;;;20.11;25.23;98863.41;5106681;27;19927;-78
2024/02/02 01:03:14;;;;;;;;;;;;;;;20.20;25.29;98872.22;5105004;28;19920;-78
2024/02/02 01:05:40;;;;;;;;;;;;;;;19.64;29.42;98867.03;5093827;28;19988;-78
2024/02/02 01:08:06;;;;;;;;;;;;;;;19.76;25.70;98872.31;5095378;27;19998;-78
2024/02/02 01:10:32;;;;;;;;;;;;;;;18.95;30.95;98872.25;5100819;28;19927;-78
2024/02/02 01:12:58;;;;;;;;;;;;;;;19.77;26.75;98871.09;5112533;28;20020;-78
2024/02/02 01:15:24;;;;;;;;;;;;;;;20.64;24.37;98867.31;5099840;28;20685;-78
2024/02/02 01:17:50;;;;;;;;;;;;;;;21.31;23.71;98871.13;5099786;28;20006;-78
2024/02/02 01:20:16;;;;;;;;;;;;;;;21.40;23.33;98872.75;5104847;28;19920;-78
2024/02/02 01:22:42;;;;;;;;;;;;;;;20.61;24.37;98874.47;5107555;28;19919;-78
2024/02/02 01:25:14;;;;;;;;;;;;;;;19.48;26.08;98877.63;5108410;28;19920;-79
2024/02/02 01:27:41;;;;;;;;;;;;;;;20.50;25.11;98882.00;5103143;28;20011;-78
2024/02/02 01:30:07;;;;;;;;;;;;;;;21.04;24.24;98878.25;5105765;28;20453;-79
2024/02/02 01:32:34;;;;;;;;;;;;;;;21.64;23.20;98878.34;5105647;28;19919;-78
2024/02/02 01:35:00;;;;;;;;;;;;;;;19.62;28.26;98875.78;5101421;28;19916;-78
2024/02/02 01:37:26;;;;;;;;;;;;;;;19.79;25.41;98868.75;5094845;28;19916;-78
2024/02/02 01:39:52;;;;;;;;;;;;;;;20.93;23.98;98871.81;5075965;28;20337;-78
2024/02/02 01:42:18;;;;;;;;;;;;;;;20.37;24.54;98865.97;5092737;28;20011;-78
2024/02/02 01:44:44;;;;;;;;;;;;;;;20.71;24.28;98863.72;5093221;28;19963;-78
2024/02/02 01:47:10;;;;;;;;;;;;;;;21.31;23.78;98862.75;5093695;28;19970;-78
2024/02/02 01:49:36;;;;;;;;;;;;;;;20.78;24.04;98856.19;5089444;28;19920;-78
2024/02/02 01:52:03;;;;;;;;;;;;;;;20.37;26.52;98854.81;5086971;28;20300;-78
2024/02/02 01:54:29;;;;;;;;;;;;;;;19.29;26.34;98867.47;5105751;28;19982;-78
2024/02/02 01:56:55;;;;;;;;;;;;;;;20.04;25.74;98868.91;5105372;28;19920;-78
2024/02/02 01:59:24;;;;;;;;;;;;;;;20.22;28.22;98859.50;5095783;28;19924;-78
2024/02/02 02:01:50;;;;;;;;;;;;;;;19.73;28.18;98865.50;5102520;28;19927;-78
2024/02/02 02:04:16;;;;;;;;;;;;;;;19.08;27.66;98861.69;5101080;28;20011;-78
2024/02/02 02:06:42;;;;;;;;;;;;;;;19.38;26.10;98876.34;5109272;27;19920;-78
2024/02/02 02:09:09;;;;;;;;;;;;;;;19.06;28.36;98861.25;5102963;27;19928;-78
2024/02/02 02:11:35;;;;;;;;;;;;;;;19.33;26.31;98871.88;5109315;27;19965;-78
2024/02/02 02:14:01;;;;;;;;;;;;;;;20.54;24.58;98870.81;5111273;28;19928;-78
2024/02/02 02:16:27;;;;;;;;;;;;;;;20.37;24.86;98864.00;5109890;27;19942;-78
2024/02/02 02:18:54;;;;;;;;;;;;;;;19.92;25.31;98878.38;5103649;27;20285;-78
2024/02/02 02:21:21;;;;;;;;;;;;;;;19.07;28.29;98883.13;5112278;28;19919;-78
2024/02/02 02:23:47;;;;;;;;;;;;;;;17.06;32.63;98888.38;5104869;28;19926;-77
2024/02/02 02:26:13;;;;;;;;;;;;;;;18.67;27.31;98871.94;5100138;27;19920;-78
2024/02/02 02:28:39;;;;;;;;;;;;;;;19.32;26.41;98872.28;5111501;27;19920;-78
2024/02/02 02:31:05;;;;;;;;;;;;;;;20.18;25.34;98874.59;5100695;27;19972;-78
2024/02/02 02:33:31;;;;;;;;;;;;;;;20.22;25.16;98881.81;5106844;27;20401;-78
2024/02/02 02:35:57;;;;;;;;;;;;;;;20.50;25.57;98881.19;5104931;27;19919;-78
2024/02/02 02:38:23;;;;;;;;;;;;;;;21.03;25.16;98876.63;5106743;28;19923;-79
2024/02/02 02:40:49;;;;;;;;;;;;;;;20.51;24.96;98875.19;5099024;28;19923;-78
2024/02/02 02:43:15;;;;;;;;;;;;;;;20.18;25.56;98875.41;5096576;28;19920;-78
2024/02/02 02:45:41;;;;;;;;;;;;;;;21.09;24.28;98877.88;5092759;28;20304;-78
2024/02/02 02:48:07;;;;;;;;;;;;;;;21.10;24.61;98882.25;5083479;28;19921;-78
2024/02/02 02:50:33;;;;;;;;;;;;;;;20.35;25.92;98868.38;5093705;28;19920;-78
2024/02/02 02:52:59;;;;;;;;;;;;;;;20.69;24.90;98880.88;5085395;28;20016;-78
2024/02/02 02:55:25;;;;;;;;;;;;;;;19.96;25.93;98871.66;5091208;28;20393;-78
2024/02/02 02:57:54;;;;;;;;;;;;;;;20.25;25.10;98872.69;5092291;28;19925;-79
2024/02/02 03:00:20;;;;;;;;;;;;;;;19.84;26.12;98879.50;5084260;28;19920;-79
2024/02/02 03:02:46;;;;;;;;;;;;;;;20.37;25.02;98877.94;5079652;28;19921;-78
2024/02/02 03:05:12;;;;;;;;;;;;;;;21.55;23.56;98871.56;5087466;28;19920;-78
2024/02/02 03:07:38;;;;;;;;;;;;;;;20.19;28.86;98874.19;5084734;28;19920;-78
2024/02/02 03:10:04;;;;;;;;;;;;;;;19.51;27.25;98886.00;5089311;28;19935;-78
2024/02/02 03:12:30;;;;;;;;;;;;;;;20.87;24.62;98886.53;5088846;28;19920;-78
2024/02/02 03:14:56;;;;;;;;;;;;;;;20.92;24.48;98888.94;5091802;28;19931;-78
2024/02/02 03:17:22;;;;;;;;;;;;;;;19.73;27.01;98887.78;5077454;28;19991;-78
2024/02/02 03:19:48;;;;;;;;;;;;;;;19.99;25.75;98889.59;5086200;28;19920;-78
2024/02/02 03:22:14;;;;;;;;;;;;;;;20.38;25.20;98882.31;5087256;28;19927;-78
2024/02/02 03:24:40;;;;;;;;;;;;;;;19.25;27.37;98892.47;5068223;28;19920;-78
2024/02/02 03:27:06;;;;;;;;;;;;;;;19.12;28.22;98893.13;5090329;28;19928;-78
2024/02/02 03:29:32;;;;;;;;;;;;;;;19.32;28.73;98895.31;5085778;28;19920;-79
2024/02/02 03:31:59;;;;;;;;;;;;;;;19.75;26.78;98902.13;5085280;28;20292;-78
2024/02/02 03:34:25;;;;;;;;;;;;;;;20.64;24.93;98898.00;5085752;28;19955;-78
2024/02/02 03:36:51;;;;;;;;;;;;;;;20.82;24.73;98901.66;5089903;28;20011;-78
2024/02/02 03:39:17;;;;;;;;;;;;;;;20.76;24.51;98899.66;5090445;28;19966;-78
2024/02/02 03:41:43;;;;;;;;;;;;;;;20.40;25.35;98901.44;5089323;28;20119;-78
2024/02/02 03:44:09;;;;;;;;;;;;;;;19.78;28.75;98895.00;5088125;28;19947;-78
2024/02/02 03:46:35;;;;;;;;;;;;;;;18.46;28.38;98891.91;5083973;28;19925;-78
2024/02/02 03:49:01;;;;;;;;;;;;;;;19.69;26.10;98909.25;5086415;28;19947;-78
2024/02/02 03:51:27;;;;;;;;;;;;;;;19.35;26.98;98904.91;5085330;28;19924;-78
2024/02/02 03:53:53;;;;;;;;;;;;;;;19.19;27.87;98907.13;5085040;28;20396;-78
2024/02/02 03:56:19;;;;;;;;;;;;;;;19.56;26.35;98916.28;5092647;28;19994;-78
2024/02/02 03:58:45;;;;;;;;;;;;;;;20.26;25.96;98906.91;5088735;28;19921;-79
2024/02/02 04:01:11;;;;;;;;;;;;;;;18.36;30.70;98914.00;5082778;28;19974;-78
2024/02/02 04:03:37;;;;;;;;;;;;;;;18.77;27.97;98924.13;5067909;28;19920;-78
2024/02/02 04:06:03;;;;;;;;;;;;;;;19.03;27.36;98912.91;5085433;28;19920;-78
2024/02/02 04:08:29;;;;;;;;;;;;;;;18.99;27.22;98912.09;5092880;28;20407;-78
2024/02/02 04:10:55;;;;;;;;;;;;;;;20.05;26.00;98920.72;5087361;28;19921;-78
2024/02/02 04:13:21;;;;;;;;;;;;;;;20.20;25.39;98922.41;5082734;28;20065;-78
2024/02/02 04:15:49;;;;;;;;;;;;;;;20.41;25.35;98917.00;5087354;28;19974;-79
2024/02/02 04:18:15;;;;;;;;;;;;;;;19.11;27.08;98920.16;5089335;28;19947;-78
2024/02/02 04:20:41;;;;;;;;;;;;;;;19.67;26.79;98920.00;5089084;28;19924;-78
2024/02/02 04:23:07;;;;;;;;;;;;;;;19.27;28.69;98925.53;5092910;28;19920;-78
2024/02/02 04:25:33;;;;;;;;;;;;;;;19.75;26.10;98930.00;5080362;28;19928;-78
2024/02/02 04:27:59;;;;;;;;;;;;;;;19.45;27.39;98940.44;5078281;28;19916;-78
2024/02/02 04:30:25;;;;;;;;;;;;;;;19.87;26.00;98926.94;5081619;28;19978;-78
2024/02/02 04:32:51;;;;;;;;;;;;;;;18.69;29.74;98936.34;5070359;28;20361;-78
2024/02/02 04:35:17;;;;;;;;;;;;;;;19.51;29.19;98944.47;5078318;28;19927;-77
2024/02/02 04:37:43;;;;;;;;;;;;;;;18.54;27.76;98938.13;5084646;28;19962;-77
2024/02/02 04:40:09;;;;;;;;;;;;;;;18.91;28.45;98940.19;5078250;28;20008;-78
2024/02/02 04:42:36;;;;;;;;;;;;;;;20.39;25.30;98936.91;5072903;28;19927;-78
2024/02/02 04:45:02;;;;;;;;;;;;;;;20.91;24.49;98930.00;5100831;27;20014;-78
2024/02/02 04:47:28;;;;;;;;;;;;;;;20.49;25.70;98936.16;5103645;28;19945;-78
2024/02/02 04:49:54;;;;;;;;;;;;;;;21.44;23.82;98938.63;5113474;28;19920;-78
2024/02/02 04:52:20;;;;;;;;;;;;;;;20.32;25.21;98952.78;5103460;27;19920;-78
2024/02/02 04:54:47;;;;;;;;;;;;;;;19.23;27.03;98946.94;5098922;27;19932;-78
2024/02/02 04:57:15;;;;;;;;;;;;;;;19.99;26.21;98943.38;5107501;28;19916;-77
2024/02/02 04:59:41;;;;;;;;;;;;;;;19.58;26.53;98957.72;5108513;28;20372;-78
2024/02/02 05:02:07;;;;;;;;;;;;;;;20.24;25.54;98956.72;5104055;28;19923;-78
2024/02/02 05:04:33;;;;;;;;;;;;;;;18.97;29.38;98967.31;5104715;28;19927;-78
2024/02/02 05:06:59;;;;;;;;;;;;;;;19.47;27.28;98967.91;5093625;28;19947;-78
2024/02/02 05:09:25;;;;;;;;;;;;;;;19.51;26.56;98983.47;5091369;28;19922;-77
2024/02/02 05:11:51;;;;;;;;;;;;;;;18.94;28.42;98979.19;5102505;28;19930;-78
2024/02/02 05:14:17;;;;;;;;;;;;;;;19.18;27.54;98983.47;5097347;28;19912;-78
2024/02/02 05:16:43;;;;;;;;;;;;;;;19.94;26.03;98970.78;5105689;28;19924;-78
2024/02/02 05:19:09;;;;;;;;;;;;;;;20.44;25.45;98977.59;5090105;28;19946;-78
2024/02/02 05:21:35;;;;;;;;;;;;;;;21.16;24.52;98983.22;5102152;28;19920;-77
2024/02/02 05:24:01;;;;;;;;;;;;;;;21.68;24.12;98973.41;5086639;28;20395;-78
2024/02/02 05:26:27;;;;;;;;;;;;;;;21.08;24.76;98962.81;5109374;28;20022;-79
2024/02/02 05:28:53;;;;;;;;;;;;;;;21.29;24.24;98970.47;5092901;28;19935;-79
2024/02/02 05:31:19;;;;;;;;;;;;;;;20.75;24.96;98971.41;5103877;28;20300;-79
2024/02/02 05:33:45;;;;;;;;;;;;;;;21.41;24.18;98972.91;5103890;28;19916;-79
2024/02/02 05:36:11;;;;;;;;;;;;;;;20.48;25.25;98981.19;5109158;28;19993;-79
2024/02/02 05:38:38;;;;;;;;;;;;;;;20.48;25.17;98976.44;5101887;28;20309;-79
2024/02/02 05:41:04;;;;;;;;;;;;;;;21.96;23.49;98979.84;5097338;28;20019;-79
2024/02/02 05:43:30;;;;;;;;;;;;;;;21.69;23.82;98980.56;5104596;28;19924;-80
2024/02/02 05:45:56;;;;;;;;;;;;;;;20.45;26.19;98974.41;5108099;27;20281;-80
2024/02/02 05:48:22;;;;;;;;;;;;;;;21.09;24.50;98978.41;5100475;28;20392;-79
2024/02/02 05:50:48;;;;;;;;;;;;;;;21.64;23.82;98978.97;5097847;28;19927;-79
2024/02/02 05:53:15;;;;;;;;;;;;;;;21.39;24.01;98991.25;5082150;28;19927;-79
2024/02/02 05:55:42;;;;;;;;;;;;;;;20.75;25.00;98984.56;5106353;28;19928;-79
2024/02/02 05:58:08;;;;;;;;;;;;;;;20.89;24.75;98982.63;5099556;28;19928;-78
2024/02/02 06:00:34;;;;;;;;;;;;;;;20.78;25.14;98983.78;5100247;28;19974;-79
2024/02/02 06:03:00;;;;;;;;;;;;;;;21.64;24.13;98984.56;5110683;27;19954;-80
2024/02/02 06:05:26;;;;;;;;;;;;;;;20.68;25.00;98986.13;5108452;28;19923;-79
2024/02/02 06:07:52;;;;;;;;;;;;;;;21.29;24.47;98984.44;5109856;28;19919;-79
2024/02/02 06:10:18;;;;;;;;;;;;;;;20.35;26.05;98980.69;5117036;28;19922;-79
2024/02/02 06:12:44;;;;;;;;;;;;;;;21.07;25.22;98986.38;5107374;28;19916;-79
2024/02/02 06:15:10;;;;;;;;;;;;;;;18.76;28.46;98999.63;5096248;28;20468;-79
2024/02/02 06:17:36;;;;;;;;;;;;;;;19.67;26.63;98995.22;5102666;28;19969;-79
2024/02/02 06:20:03;;;;;;;;;;;;;;;20.66;25.47;98994.06;5117044;28;20388;-79
2024/02/02 06:22:29;;;;;;;;;;;;;;;21.07;26.64;98996.72;5114973;28;20350;-78
2024/02/02 06:24:55;;;;;;;;;;;;;;;18.68;29.28;99006.25;5104526;28;19982;-79
2024/02/02 06:27:22;;;;;;;;;;;;;;;19.98;26.52;98999.47;5105385;28;19923;-79
2024/02/02 06:29:50;;;;;;;;;;;;;;;20.32;26.33;99011.38;5117028;28;19918;-79
2024/02/02 06:32:17;;;;;;;;;;;;;;;21.05;25.48;98990.75;5105734;28;20380;-78
2024/02/02 06:34:43;;;;;;;;;;;;;;;21.03;25.54;98993.06;5105685;28;20380;-78
2024/02/02 06:37:09;;;;;;;;;;;;;;;19.81;28.14;99002.91;5101535;28;19920;-78
2024/02/02 06:39:35;;;;;;;;;;;;;;;20.57;27.13;98998.41;5100676;27;20399;-78
2024/02/02 06:42:01;;;;;;;;;;;;;;;20.72;26.37;98994.53;5102660;27;19920;-79
2024/02/02 06:44:27;;;;;;;;;;;;;;;22.01;24.52;99001.81;5097720;27;19920;-78
2024/02/02 06:46:53;;;;;;;;;;;;;;;21.47;25.17;99002.06;5106659;27;19920;-79
2024/02/02 06:49:19;;;;;;;;;;;;;;;22.16;24.48;98999.84;5096041;28;20327;-78
2024/02/02 06:51:45;;;;;;;;;;;;;;;20.97;26.22;99015.00;5110226;27;19923;-78
2024/02/02 06:54:11;;;;;;;;;;;;;;;20.75;26.05;98999.31;5116456;27;19927;-78
2024/02/02 06:56:39;;;;;;;;;;;;;;;21.11;25.77;99003.13;5097513;28;19927;-78
2024/02/02 06:59:05;;;;;;;;;;;;;;;21.54;25.27;99016.06;5105077;28;20441;-78
2024/02/02 07:01:31;;;;;;;;;;;;;;;21.56;25.82;99012.88;5104189;27;19923;-79
2024/02/02 07:03:58;;;;;;;;;;;;;;;22.28;24.23;99007.03;5101209;28;19958;-78
2024/02/02 07:06:24;;;;;;;;;;;;;;;21.13;25.48;99001.53;5102225;27;19920;-78
2024/02/02 07:08:50;;;;;;;;;;;;;;;21.63;25.00;99005.34;5102403;27;19920;-79
2024/02/02 07:11:32;;;;;;;;;;;;;;;21.31;25.35;99008.00;5095636;28;19916;-79
2024/02/02 07:13:59;;;;;;;;;;;;;;;21.02;25.44;99006.25;5094839;28;20011;-79
2024/02/02 07:16:29;;;;;;;;;;;;;;;21.71;25.12;99008.91;5095675;28;19916;-79
2024/02/02 07:18:55;;;;;;;;;;;;;;;22.18;24.45;99017.03;5095394;28;19923;-79
2024/02/02 07:21:31;;;;;;;;;;;;;;;22.62;23.94;99019.44;5096309;28;19931;-79
2024/02/02 07:23:58;;;;;;;;;;;;;;;22.73;23.89;99016.63;5095167;28;19959;-79
2024/02/02 07:26:25;;;;;;;;;;;;;;;21.79;25.17;99019.75;5095442;28;20010;-79
2024/02/02 07:28:51;;;;;;;;;;;;;;;21.30;25.60;99008.41;5094694;28;19924;-79
2024/02/02 07:31:36;;;;;;;;;;;;;;;18.84;29.77;99041.06;5114691;28;20293;-78
2024/02/02 07:34:05;;;;;;;;;;;;;;;16.49;35.84;99063.81;5105854;28;19985;-78
2024/02/02 07:36:33;;;;;;;;;;;;;;;15.34;36.78;99073.34;5104554;28;19927;-78
2024/02/02 07:38:59;;;;;;;;;;;;;;;16.50;34.13;99065.41;5079760;28;19920;-78
2024/02/02 07:41:26;;;;;;;;;;;;;;;17.61;31.95;99050.06;5103694;28;19922;-78
2024/02/02 07:43:54;;;;;;;;;;;;;;;16.26;34.29;99045.41;5096621;28;19931;-78
2024/02/02 07:46:20;;;;;;;;;;;;;;;18.02;31.16;99045.66;5111962;28;19916;-78
2024/02/02 07:48:47;;;;;;;;;;;;;;;18.31;30.48;99047.75;5094537;28;19920;-78
2024/02/02 07:51:15;;;;;;;;;;;;;;;18.51;30.17;99052.88;5094288;28;19920;-79
2024/02/02 07:53:42;;;;;;;;;;;;;;;17.68;32.79;99052.97;5099211;28;19920;-78
2024/02/02 07:56:08;;;;;;;;;;;;;;;19.92;28.25;99042.81;5095030;28;20331;-79
2024/02/02 07:58:34;;;;;;;;;;;;;;;20.16;28.15;99049.84;5095126;28;19916;-79
2024/02/02 08:01:00;;;;;;;;;;;;;;;20.39;27.64;99050.47;5092800;28;20293;-79
2024/02/02 08:03:27;;;;;;;;;;;;;;;21.38;26.37;99043.53;5104285;28;20278;-79
2024/02/02 08:05:53;;;;;;;;;;;;;;;21.43;26.48;99057.13;5107165;28;19916;-79
2024/02/02 08:08:19;;;;;;;;;;;;;;;22.58;25.14;99052.19;5094979;28;19916;-79
2024/02/02 08:10:46;;;;;;;;;;;;;;;22.84;24.27;99063.00;5101932;28;19919;-79
2024/02/02 08:13:12;;;;;;;;;;;;;;;22.01;25.32;99063.34;5113406;28;20014;-79
2024/02/02 08:15:39;;;;;;;;;;;;;;;22.08;25.69;99061.78;5105986;28;19971;-79
2024/02/02 08:18:05;;;;;;;;;;;;;;;22.40;24.98;99063.41;5108952;28;19960;-79
2024/02/02 08:20:32;;;;;;;;;;;;;;;20.26;27.76;99069.47;5097905;27;20869;-78
2024/02/02 08:22:58;;;;;;;;;;;;;;;21.55;26.07;99064.38;5108645;27;20010;-78
2024/02/02 08:25:24;;;;;;;;;;;;;;;20.88;27.28;99052.81;5103694;28;19931;-78
2024/02/02 08:27:50;;;;;;;;;;;;;;;20.83;27.04;99061.56;5096603;27;19946;-78
2024/02/02 08:30:17;;;;;;;;;;;;;;;21.54;26.66;99066.34;5131637;27;20002;-78
2024/02/02 08:32:45;;;;;;;;;;;;;;;20.10;28.03;99071.69;5113093;28;19992;-78
2024/02/02 08:35:11;;;;;;;;;;;;;;;20.12;30.16;99079.69;5096063;28;20327;-78
2024/02/02 08:37:38;;;;;;;;;;;;;;;20.34;28.46;99084.28;5090331;28;20305;-78
2024/02/02 08:40:17;;;;;;;;;;;;;;;20.69;27.36;99090.16;5105158;27;19920;-78
2024/02/02 08:42:43;;;;;;;;;;;;;;;20.93;28.23;99088.75;5093981;28;19931;-78
2024/02/02 08:45:12;;;;;;;;;;;;;;;19.52;29.41;99093.72;5112844;28;19938;-78
2024/02/02 08:47:39;;;;;;;;;;;;;;;20.48;27.36;99096.38;5081222;28;19927;-78
2024/02/02 08:50:06;;;;;;;;;;;;;;;20.87;27.46;99095.88;5091549;28;20032;-78
2024/02/02 08:52:35;;;;;;;;;;;;;;;20.64;26.98;99093.31;5073123;28;20133;-78
2024/02/02 08:55:06;;;;;;;;;;;;;;;21.02;26.52;99097.59;5076123;28;19924;-78
2024/02/02 08:57:36;;;;;;;;;;;;;;;21.81;25.66;99092.81;5088031;28;19935;-78
2024/02/02 09:00:11;;;;;;;;;;;;;;;21.29;26.17;99093.38;5088497;28;19924;-78
2024/02/02 09:02:43;;;;;;;;;;;;;;;22.15;25.84;99100.94;5107345;28;19912;-79
2024/02/02 09:05:23;;;;;;;;;;;;;;;20.93;26.73;99094.34;5091405;28;20263;-78
2024/02/02 09:07:50;;;;;;;;;;;;;;;21.09;26.56;99092.06;5080651;28;19923;-78
2024/02/02 09:10:43;;;;;;;;;;;;;;;21.15;26.65;99093.28;5082676;28;20437;-79
2024/02/02 09:13:23;;;;;;;;;;;;;;;20.60;27.51;99089.69;5081633;28;20297;-78
2024/02/02 09:15:49;;;;;;;;;;;;;;;20.30;28.48;99091.81;5087541;28;19920;-79
2024/02/02 09:18:22;;;;;;;;;;;;;;;21.13;27.07;99085.31;5080552;28;19920;-79
2024/02/02 09:20:49;;;;;;;;;;;;;;;21.14;26.31;99088.91;5081068;28;20464;-78
2024/02/02 09:23:15;;;;;;;;;;;;;;;19.69;29.41;99100.69;5088625;28;19930;-78
2024/02/02 09:25:42;;;;;;;;;;;;;;;21.31;25.90;99094.59;5080347;28;20370;-79
2024/02/02 09:28:37;;;;;;;;;;;;;;;22.33;26.40;99084.97;5079822;28;19927;-79
2024/02/02 09:31:06;;;;;;;;;;;;;;;22.09;24.86;99089.34;5065154;28;19923;-78
2024/02/02 09:33:32;;;;;;;;;;;;;;;21.74;24.53;99083.59;5083596;28;19924;-78
2024/02/02 09:35:59;;;;;;;;;;;;;;;22.20;24.72;99092.13;5085849;28;20053;-79
2024/02/02 09:38:26;;;;;;;;;;;;;;;22.86;23.60;99091.41;5092637;28;20416;-78
2024/02/02 09:41:01;;;;;;;;;;;;;;;21.38;25.30;99087.47;5089853;28;20412;-78
2024/02/02 09:43:37;;;;;;;;;;;;;;;20.97;25.77;99092.34;5087785;28;19935;-78
2024/02/02 09:46:03;;;;;;;;;;;;;;;21.27;25.94;99085.41;5077726;28;19943;-79
2024/02/02 09:48:39;;;;;;;;;;;;;;;23.13;23.48;99074.94;5086366;28;20238;-78
2024/02/02 09:51:10;;;;;;;;;;;;;;;23.20;23.31;99088.94;5074910;28;20412;-78
2024/02/02 09:53:51;;;;;;;;;;;;;;;22.92;23.96;99089.78;5089391;28;19963;-78
2024/02/02 09:56:20;;;;;;;;;;;;;;;22.08;24.38;99090.50;5091981;28;19916;-78
2024/02/02 09:58:55;;;;;;;;;;;;;;;22.01;24.46;99088.50;5072272;28;19927;-78
2024/02/02 10:01:45;;;;;;;;;;;;;;;21.76;26.00;99087.63;5072371;28;19917;-78
2024/02/02 10:04:30;;;;;;;;;;;;;;;19.42;30.44;99082.47;5092294;28;19920;-78
2024/02/02 10:07:11;;;;;;;;;;;;;;;20.60;26.35;99081.34;5092076;28;19962;-79
2024/02/02 10:09:40;;;;;;;;;;;;;;;21.31;25.36;99077.03;5092928;28;20413;-78
2024/02/02 10:12:09;;;;;;;;;;;;;;;22.03;24.57;99074.16;5084722;28;19951;-79
2024/02/02 10:14:38;;;;;;;;;;;;;;;21.23;27.38;99081.00;5075246;28;19920;-78
2024/02/02 10:17:07;;;;;;;;;;;;;;;21.96;25.20;99071.34;5090715;28;19923;-78
2024/02/02 10:20:11;;;;;;;;;;;;;;;22.23;23.72;99068.97;5097023;28;20010;-79
2024/02/02 10:22:43;;;;;;;;;;;;;;;22.83;22.82;99078.19;5028011;28;20422;-78
2024/02/02 10:25:12;;;;;;;;;;;;;;;23.14;22.56;99076.56;4999489;28;19976;-78
2024/02/02 10:27:58;;;;;;;;;;;;;;;22.22;23.34;99065.38;5048542;28;19973;-78
2024/02/02 10:30:33;;;;;;;;;;;;;;;21.09;26.24;99067.75;5082078;28;20014;-79
2024/02/02 10:33:14;;;;;;;;;;;;;;;22.34;24.35;99064.19;5064926;28;19920;-79
2024/02/02 10:35:51;;;;;;;;;;;;;;;23.40;22.88;99050.88;5088022;28;19944;-79
2024/02/02 10:38:32;;;;;;;;;;;;;;;23.12;24.34;99060.16;5086399;28;19919;-79
2024/02/02 10:41:01;;;;;;;;;;;;;;;21.69;25.32;99053.25;5083893;28;20281;-79
2024/02/02 10:43:39;;;;;;;;;;;;;;;20.82;26.37;99054.38;5085510;28;19920;-79
2024/02/02 10:46:06;;;;;;;;;;;;;;;22.33;24.12;99057.81;5079164;28;19996;-79
2024/02/02 10:48:51;;;;;;;;;;;;;;;23.07;22.75;99035.34;5085753;28;19924;-80
2024/02/02 10:51:23;;;;;;;;;;;;;;;22.41;23.49;99039.81;5082457;28;19932;-80
2024/02/02 10:54:07;;;;;;;;;;;;;;;23.45;22.58;99027.25;5085951;28;19935;-80
2024/02/02 10:56:50;;;;;;;;;;;;;;;22.81;24.17;99009.81;5088661;28;19967;-78
2024/02/02 10:59:26;;;;;;;;;;;;;;;21.33;24.69;99027.97;5088263;28;19931;-79
2024/02/02 11:01:59;;;;;;;;;;;;;;;22.17;23.27;99028.63;5085506;28;19932;-79
2024/02/02 11:04:43;;;;;;;;;;;;;;;21.61;23.86;99030.06;5085039;28;20014;-79
2024/02/02 11:07:12;;;;;;;;;;;;;;;21.17;25.44;99032.25;5087934;28;19920;-79
2024/02/02 11:09:57;;;;;;;;;;;;;;;20.59;26.78;99018.34;5064325;28;20301;-79
2024/02/02 11:12:23;;;;;;;;;;;;;;;20.48;25.32;99007.13;5075952;28;19983;-79
2024/02/02 11:14:54;;;;;;;;;;;;;;;19.28;26.77;99024.56;5083831;28;20351;-78
2024/02/02 11:17:26;;;;;;;;;;;;;;;20.43;25.32;99012.25;5089063;28;19920;-78
2024/02/02 11:19:58;;;;;;;;;;;;;;;21.29;23.67;99020.75;5089171;28;19924;-78
2024/02/02 11:22:26;;;;;;;;;;;;;;;20.78;24.66;99011.69;5089473;28;20314;-78
2024/02/02 11:25:14;;;;;;;;;;;;;;;22.29;23.24;99009.41;5082918;28;19935;-79
2024/02/02 11:28:00;;;;;;;;;;;;;;;22.49;22.08;98999.44;5086026;28;20003;-79
2024/02/02 11:30:29;;;;;;;;;;;;;;;22.11;23.11;98994.63;5083304;28;19975;-79
2024/02/02 11:32:55;;;;;;;;;;;;;;;23.09;22.29;98985.31;5085111;28;19921;-79
2024/02/02 11:35:32;;;;;;;;;;;;;;;22.51;23.59;98974.66;5080781;28;19927;-79
2024/02/02 11:38:04;;;;;;;;;;;;;;;21.96;23.53;98982.63;5089200;28;19997;-79
2024/02/02 11:40:30;;;;;;;;;;;;;;;21.46;28.30;98983.72;5088538;28;19920;-79
2024/02/02 11:42:57;;;;;;;;;;;;;;;22.79;22.45;98982.22;5085257;28;19977;-79
2024/02/02 11:45:25;;;;;;;;;;;;;;;21.95;23.96;98977.44;5080013;28;20339;-79
2024/02/02 11:48:01;;;;;;;;;;;;;;;22.40;22.40;98965.47;5081349;28;19920;-80
2024/02/02 11:50:30;;;;;;;;;;;;;;;23.01;22.37;98966.94;5079557;28;19920;-80
2024/02/02 11:53:02;;;;;;;;;;;;;;;22.80;22.83;98955.03;5090905;28;19974;-79
2024/02/02 11:55:32;;;;;;;;;;;;;;;22.07;25.51;98976.25;5087193;28;20404;-79
2024/02/02 11:58:09;;;;;;;;;;;;;;;19.86;31.20;98975.47;5067544;28;20340;-79
2024/02/02 12:00:35;;;;;;;;;;;;;;;19.01;29.90;98970.13;5082140;28;19927;-79
2024/02/02 12:03:04;;;;;;;;;;;;;;;20.98;23.68;98963.53;5083573;28;20304;-80
2024/02/02 12:05:40;;;;;;;;;;;;;;;21.20;23.91;98959.69;5080976;28;19971;-79
2024/02/02 12:08:15;;;;;;;;;;;;;;;20.70;26.38;98970.97;5067334;28;19967;-79
2024/02/02 12:10:42;;;;;;;;;;;;;;;21.04;24.22;98967.59;5086229;28;19935;-79
2024/02/02 12:13:17;;;;;;;;;;;;;;;21.00;24.51;98961.19;5084949;28;19924;-79
2024/02/02 12:15:43;;;;;;;;;;;;;;;21.82;23.24;98962.25;5087982;28;20274;-79
2024/02/02 12:18:09;;;;;;;;;;;;;;;21.45;23.05;98956.19;5090050;28;19958;-79
2024/02/02 12:20:38;;;;;;;;;;;;;;;21.60;23.17;98952.22;5079630;28;19920;-80
2024/02/02 12:23:05;;;;;;;;;;;;;;;21.78;23.02;98958.63;5085861;28;19932;-80
2024/02/02 12:25:31;;;;;;;;;;;;;;;21.61;23.57;98951.03;5079462;28;19958;-80
2024/02/02 12:27:57;;;;;;;;;;;;;;;22.11;23.02;98943.50;5081053;28;19920;-80
2024/02/02 12:30:23;;;;;;;;;;;;;;;21.38;25.66;98936.59;5065510;28;19928;-80
2024/02/02 12:32:56;;;;;;;;;;;;;;;21.12;24.09;98943.31;5084928;28;20026;-80
2024/02/02 12:35:23;;;;;;;;;;;;;;;21.95;22.92;98932.72;5085000;28;20345;-79
2024/02/02 12:37:50;;;;;;;;;;;;;;;20.70;27.68;98943.84;5057458;28;19969;-80
2024/02/02 12:40:20;;;;;;;;;;;;;;;21.80;23.85;98931.88;5088714;28;20357;-80
2024/02/02 12:42:47;;;;;;;;;;;;;;;23.02;21.53;98917.31;5096601;28;20534;-80
2024/02/02 12:45:14;;;;;;;;;;;;;;;23.77;20.90;98922.13;5112297;28;20335;-80
2024/02/02 12:47:40;;;;;;;;;;;;;;;22.36;22.18;98907.88;5104943;28;19920;-80
2024/02/02 12:50:14;;;;;;;;;;;;;;;22.20;24.43;98915.91;5102692;28;19924;-80
2024/02/02 12:52:47;;;;;;;;;;;;;;;22.24;23.84;98914.69;5094763;27;19924;-79
2024/02/02 12:55:13;;;;;;;;;;;;;;;23.29;21.21;98904.41;5102394;28;20297;-79